createdAt,value
2018-09-11T00:01:20.896Z,57.46
2018-09-11T00:03:47.250Z,57.49
2018-09-11T00:06:13.560Z,57.66
2018-09-11T00:08:39.922Z,57.52
2018-09-11T00:11:06.244Z,57.53
2018-09-11T00:13:32.572Z,57.55
2018-09-11T00:15:58.897Z,57.84
2018-09-11T00:18:25.210Z,58.06
2018-09-11T00:20:51.561Z,58.34
2018-09-11T00:23:17.871Z,58.39
2018-09-11T00:25:44.190Z,58.97
2018-09-11T00:28:10.507Z,59.02
2018-09-11T00:30:36.824Z,59.08
2018-09-11T00:33:03.139Z,58.86
2018-09-11T00:35:29.448Z,58.99
2018-09-11T00:37:55.758Z,59.07
2018-09-11T00:40:22.074Z,59.30
2018-09-11T00:42:48.390Z,59.43
2018-09-11T00:45:14.706Z,59.29
2018-09-11T00:47:41.019Z,59.41
2018-09-11T00:50:07.332Z,59.60
2018-09-11T00:52:33.644Z,59.54
2018-09-11T00:54:59.954Z,59.44
2018-09-11T00:57:26.269Z,59.57
2018-09-11T00:59:52.614Z,59.59
2018-09-11T01:02:18.926Z,59.82
2018-09-11T01:04:45.276Z,59.83
2018-09-11T01:07:11.594Z,59.73
2018-09-11T01:09:37.909Z,59.82
2018-09-11T01:12:04.224Z,59.67
2018-09-11T01:14:30.542Z,59.88
2018-09-11T01:16:56.860Z,59.74
2018-09-11T01:19:23.214Z,59.75
2018-09-11T01:21:49.524Z,59.82
2018-09-11T01:24:15.841Z,59.83
2018-09-11T01:26:42.147Z,59.96
2018-09-11T01:29:08.505Z,60.00
2018-09-11T01:31:34.820Z,60.19
2018-09-11T01:34:01.152Z,60.11
2018-09-11T01:36:27.472Z,60.25
2018-09-11T01:38:53.792Z,60.37
2018-09-11T01:41:20.100Z,60.67
2018-09-11T01:43:46.417Z,60.80
2018-09-11T01:46:12.729Z,60.74
2018-09-11T01:48:39.063Z,60.68
2018-09-11T01:51:05.371Z,61.00
2018-09-11T01:53:31.687Z,61.00
2018-09-11T01:55:58.009Z,60.99
2018-09-11T01:58:24.332Z,60.93
2018-09-11T02:00:50.643Z,61.01
2018-09-11T02:03:16.959Z,61.00
2018-09-11T02:05:43.326Z,60.97
2018-09-11T02:08:09.629Z,61.17
2018-09-11T02:10:35.940Z,61.43
2018-09-11T02:13:02.248Z,61.67
2018-09-11T02:15:28.557Z,61.96
2018-09-11T02:17:54.867Z,61.90
2018-09-11T02:20:21.220Z,61.89
2018-09-11T02:22:47.533Z,61.90
2018-09-11T02:25:13.880Z,62.11
2018-09-11T02:27:40.193Z,62.05
2018-09-11T02:30:06.500Z,62.32
2018-09-11T02:32:32.816Z,62.48
2018-09-11T02:34:59.124Z,62.72
2018-09-11T02:37:25.439Z,62.75
2018-09-11T02:39:51.790Z,62.77
2018-09-11T02:42:18.105Z,62.72
2018-09-11T02:44:44.415Z,62.81
2018-09-11T02:47:10.724Z,62.88
2018-09-11T02:49:37.049Z,62.83
2018-09-11T02:52:03.357Z,62.89
2018-09-11T02:54:29.674Z,63.08
2018-09-11T02:56:55.994Z,63.19
2018-09-11T02:59:22.319Z,63.41
2018-09-11T03:01:48.629Z,63.21
2018-09-11T03:04:14.947Z,63.46
2018-09-11T03:06:41.265Z,63.47
2018-09-11T03:09:07.576Z,63.43
2018-09-11T03:11:33.893Z,63.54
2018-09-11T03:14:00.209Z,63.67
2018-09-11T03:16:26.529Z,63.62
2018-09-11T03:18:52.921Z,63.73
2018-09-11T03:21:19.210Z,63.85
2018-09-11T03:23:45.556Z,63.89
2018-09-11T03:26:11.869Z,64.34
2018-09-11T03:28:38.184Z,64.35
2018-09-11T03:31:04.496Z,64.33
2018-09-11T03:33:30.799Z,64.45
2018-09-11T03:35:57.117Z,64.12
2018-09-11T03:38:23.438Z,64.08
2018-09-11T03:40:49.790Z,64.26
2018-09-11T03:43:16.101Z,64.31
2018-09-11T03:45:42.421Z,64.41
2018-09-11T03:48:08.755Z,64.55
2018-09-11T03:50:35.071Z,64.82
2018-09-11T03:53:01.386Z,64.89
2018-09-11T03:55:27.714Z,64.88
2018-09-11T03:57:54.019Z,64.84
2018-09-11T04:00:20.386Z,65.03
2018-09-11T04:02:46.688Z,65.46
2018-09-11T04:05:13.000Z,65.73
2018-09-11T04:07:39.323Z,65.92
2018-09-11T04:10:05.648Z,66.03
2018-09-11T04:12:31.966Z,66.59
2018-09-11T04:14:58.288Z,66.53
2018-09-11T04:17:24.600Z,72.92
2018-09-11T04:19:50.916Z,76.81
2018-09-11T04:22:17.229Z,75.19
2018-09-11T04:24:43.547Z,72.90
2018-09-11T04:27:09.855Z,71.64
2018-09-11T04:29:36.171Z,69.57
2018-09-11T04:32:02.487Z,68.69
2018-09-11T04:34:28.792Z,67.92
2018-09-11T04:36:55.099Z,67.89
2018-09-11T04:39:21.407Z,68.66
2018-09-11T04:41:47.769Z,69.35
2018-09-11T04:44:14.087Z,69.39
2018-09-11T04:46:40.398Z,69.35
2018-09-11T04:49:06.723Z,69.23
2018-09-11T04:51:33.052Z,69.71
2018-09-11T04:53:59.359Z,69.16
2018-09-11T04:56:25.668Z,68.74
2018-09-11T04:58:51.984Z,68.83
2018-09-11T05:01:18.309Z,68.21
2018-09-11T05:03:44.621Z,66.19
2018-09-11T05:06:10.945Z,67.55
2018-09-11T05:08:37.251Z,67.19
2018-09-11T05:11:03.559Z,68.81
2018-09-11T05:13:29.880Z,70.00
2018-09-11T05:15:56.188Z,71.54
2018-09-11T05:18:22.505Z,72.08
2018-09-11T05:20:48.811Z,72.59
2018-09-11T05:23:15.125Z,73.32
2018-09-11T05:25:41.448Z,72.63
2018-09-11T05:28:07.761Z,72.61
2018-09-11T05:30:34.082Z,72.29
2018-09-11T05:33:01.240Z,72.29
2018-09-11T05:35:27.546Z,72.75
2018-09-11T05:37:53.866Z,73.83
2018-09-11T05:40:20.220Z,72.89
2018-09-11T05:42:46.738Z,72.81
2018-09-11T05:45:13.056Z,73.39
2018-09-11T05:47:39.360Z,72.96
2018-09-11T05:50:05.715Z,73.28
2018-09-11T05:52:32.034Z,71.59
2018-09-11T05:54:58.392Z,72.45
2018-09-11T05:57:24.710Z,70.34
2018-09-11T05:59:51.031Z,71.36
2018-09-11T06:02:17.354Z,71.87
2018-09-11T06:04:43.661Z,73.01
2018-09-11T06:07:09.973Z,71.08
2018-09-11T06:09:36.322Z,70.71
2018-09-11T06:12:02.630Z,70.48
2018-09-11T06:14:28.946Z,71.21
2018-09-11T06:16:55.270Z,71.17
2018-09-11T06:19:21.579Z,72.53
2018-09-11T06:21:47.895Z,75.14
2018-09-11T06:24:14.199Z,73.41
2018-09-11T06:26:40.520Z,72.12
2018-09-11T06:29:06.846Z,71.57
2018-09-11T06:31:33.144Z,71.45
2018-09-11T06:33:59.491Z,70.39
2018-09-11T06:36:25.803Z,71.66
2018-09-11T06:38:52.115Z,73.52
2018-09-11T06:41:18.437Z,71.64
2018-09-11T06:43:44.746Z,71.58
2018-09-11T06:46:11.057Z,69.19
2018-09-11T06:48:37.377Z,70.16
2018-09-11T06:51:03.698Z,70.04
2018-09-11T06:53:30.018Z,69.96
2018-09-11T06:55:56.335Z,70.40
2018-09-11T06:58:22.643Z,70.67
2018-09-11T07:00:48.963Z,69.64
2018-09-11T07:03:15.360Z,68.38
2018-09-11T07:05:41.673Z,67.99
2018-09-11T07:08:08.009Z,68.06
2018-09-11T07:10:34.334Z,68.34
2018-09-11T07:13:00.642Z,68.42
2018-09-11T07:15:26.961Z,66.79
2018-09-11T07:17:53.612Z,67.11
2018-09-11T07:20:20.282Z,66.57
2018-09-11T07:22:46.275Z,65.74
2018-09-11T07:25:12.592Z,65.19
2018-09-11T07:27:38.910Z,64.39
2018-09-11T07:30:05.228Z,64.46
2018-09-11T07:32:31.605Z,63.24
2018-09-11T07:34:57.862Z,62.90
2018-09-11T07:37:24.220Z,62.48
2018-09-11T07:39:50.527Z,61.32
2018-09-11T07:42:16.846Z,60.38
2018-09-11T07:44:43.199Z,59.87
2018-09-11T07:47:09.516Z,59.37
2018-09-11T07:49:35.852Z,59.01
2018-09-11T07:52:02.165Z,58.50
2018-09-11T07:54:28.471Z,58.26
2018-09-11T07:56:54.850Z,57.28
2018-09-11T07:59:21.143Z,57.48
2018-09-11T08:01:47.487Z,57.85
2018-09-11T08:04:13.802Z,57.13
2018-09-11T08:06:40.168Z,56.48
2018-09-11T08:09:06.521Z,55.36
2018-09-11T08:11:32.831Z,53.96
2018-09-11T08:13:59.148Z,53.98
2018-09-11T08:16:25.477Z,54.04
2018-09-11T08:18:51.771Z,53.49
2018-09-11T08:21:18.084Z,53.40
2018-09-11T08:23:44.396Z,53.17
2018-09-11T08:26:10.711Z,53.42
2018-09-11T08:28:37.031Z,52.73
2018-09-11T08:31:03.363Z,53.18
2018-09-11T08:33:29.684Z,51.91
2018-09-11T08:35:56.008Z,50.78
2018-09-11T08:38:22.327Z,51.16
2018-09-11T08:40:48.648Z,50.91
2018-09-11T08:43:14.972Z,49.90
2018-09-11T08:45:41.310Z,49.43
2018-09-11T08:48:07.670Z,49.85
2018-09-11T08:50:33.996Z,49.94
2018-09-11T08:53:00.337Z,49.49
2018-09-11T08:55:26.668Z,48.94
2018-09-11T08:57:53.013Z,48.68
2018-09-11T09:00:19.337Z,48.63
2018-09-11T09:02:45.661Z,48.25
2018-09-11T09:05:12.013Z,47.55
2018-09-11T09:07:38.332Z,47.23
2018-09-11T09:10:04.681Z,45.83
2018-09-11T09:12:30.967Z,45.39
2018-09-11T09:14:57.329Z,45.37
2018-09-11T09:17:23.616Z,45.09
2018-09-11T09:19:49.925Z,45.13
2018-09-11T09:22:16.295Z,45.42
2018-09-11T09:24:42.611Z,45.75
2018-09-11T09:27:08.977Z,45.25
2018-09-11T09:29:35.251Z,44.78
2018-09-11T09:32:01.607Z,45.15
2018-09-11T09:34:27.926Z,44.38
2018-09-11T09:36:54.243Z,44.67
2018-09-11T09:39:20.558Z,45.07
2018-09-11T09:41:46.881Z,44.89
2018-09-11T09:44:13.196Z,44.05
2018-09-11T09:46:39.504Z,44.29
2018-09-11T09:49:05.828Z,44.29
2018-09-11T09:51:32.151Z,44.34
2018-09-11T09:53:58.470Z,43.96
2018-09-11T09:56:24.775Z,44.47
2018-09-11T09:58:51.128Z,44.74
2018-09-11T10:01:17.440Z,44.22
2018-09-11T10:03:43.772Z,44.47
2018-09-11T10:06:10.085Z,44.87
2018-09-11T10:08:36.395Z,45.37
2018-09-11T10:11:02.703Z,45.07
2018-09-11T10:13:29.028Z,44.84
2018-09-11T10:15:55.344Z,45.34
2018-09-11T10:18:21.652Z,45.43
2018-09-11T10:20:47.959Z,45.43
2018-09-11T10:23:14.272Z,45.80
2018-09-11T10:25:40.579Z,45.79
2018-09-11T10:28:06.899Z,45.43
2018-09-11T10:30:33.300Z,45.00
2018-09-11T10:32:59.582Z,45.71
2018-09-11T10:35:25.896Z,44.50
2018-09-11T10:37:52.208Z,44.27
2018-09-11T10:40:18.516Z,44.90
2018-09-11T10:42:44.921Z,44.66
2018-09-11T10:45:11.242Z,45.07
2018-09-11T10:47:37.564Z,45.60
2018-09-11T10:50:03.895Z,44.65
2018-09-11T10:52:30.204Z,43.84
2018-09-11T10:54:56.526Z,42.84
2018-09-11T10:57:22.848Z,42.83
2018-09-11T10:59:49.178Z,42.88
2018-09-11T11:02:15.529Z,43.13
2018-09-11T11:04:41.814Z,43.55
2018-09-11T11:07:08.151Z,43.54
2018-09-11T11:09:34.470Z,42.92
2018-09-11T11:12:00.792Z,42.87
2018-09-11T11:14:27.104Z,43.59
2018-09-11T11:16:53.499Z,43.06
2018-09-11T11:19:19.797Z,42.72
2018-09-11T11:21:46.113Z,42.72
2018-09-11T11:24:12.436Z,43.17
2018-09-11T11:26:38.752Z,42.63
2018-09-11T11:29:05.072Z,42.63
2018-09-11T11:31:31.384Z,42.28
2018-09-11T11:33:57.720Z,42.41
2018-09-11T11:36:24.580Z,42.56
2018-09-11T11:38:50.736Z,43.02
2018-09-11T11:41:17.048Z,42.86
2018-09-11T11:43:43.367Z,42.50
2018-09-11T11:46:09.682Z,41.81
2018-09-11T11:48:36.002Z,42.82
2018-09-11T11:51:02.308Z,42.15
2018-09-11T11:53:28.621Z,41.82
2018-09-11T11:55:54.987Z,42.06
2018-09-11T11:58:21.367Z,41.71
2018-09-11T12:00:47.690Z,41.20
2018-09-11T12:03:14.079Z,39.47
2018-09-11T12:05:40.399Z,38.40
2018-09-11T12:08:06.722Z,39.04
2018-09-11T12:10:33.038Z,37.58
2018-09-11T12:12:59.365Z,37.55
2018-09-11T12:15:25.684Z,37.77
2018-09-11T12:17:52.002Z,38.69
2018-09-11T12:20:18.330Z,39.24
2018-09-11T12:22:44.656Z,38.75
2018-09-11T12:25:10.983Z,37.45
2018-09-11T12:27:37.297Z,37.90
2018-09-11T12:30:03.656Z,37.28
2018-09-11T12:32:29.983Z,38.03
2018-09-11T12:34:56.311Z,39.13
2018-09-11T12:37:22.627Z,38.82
2018-09-11T12:39:48.950Z,39.07
2018-09-11T12:42:15.263Z,39.67
2018-09-11T12:44:41.591Z,38.47
2018-09-11T12:47:08.075Z,36.15
2018-09-11T12:49:34.233Z,36.29
2018-09-11T12:52:00.557Z,36.05
2018-09-11T12:54:26.869Z,35.67
2018-09-11T12:56:53.198Z,36.10
2018-09-11T12:59:19.524Z,36.55
2018-09-11T13:01:45.851Z,36.01
2018-09-11T13:04:12.183Z,36.30
2018-09-11T13:06:38.506Z,35.97
2018-09-11T13:09:04.838Z,36.82
2018-09-11T13:11:31.162Z,36.32
2018-09-11T13:13:57.492Z,36.73
2018-09-11T13:16:23.805Z,37.89
2018-09-11T13:18:50.135Z,38.55
2018-09-11T13:21:16.447Z,39.19
2018-09-11T13:23:42.793Z,38.52
2018-09-11T13:26:09.110Z,39.33
2018-09-11T13:28:35.437Z,40.01
2018-09-11T13:31:01.749Z,39.06
2018-09-11T13:33:28.068Z,39.08
2018-09-11T13:35:54.395Z,38.10
2018-09-11T13:38:20.726Z,39.84
2018-09-11T13:40:47.040Z,39.18
2018-09-11T13:43:13.347Z,39.32
2018-09-11T13:45:39.677Z,38.64
2018-09-11T13:48:06.002Z,39.71
2018-09-11T13:50:32.321Z,40.03
2018-09-11T13:52:58.699Z,39.85
2018-09-11T13:55:25.010Z,39.12
2018-09-11T13:57:51.344Z,40.42
2018-09-11T14:00:17.654Z,39.42
2018-09-11T14:02:44.076Z,39.60
2018-09-11T14:05:10.314Z,39.80
2018-09-11T14:07:36.630Z,38.82
2018-09-11T14:10:02.941Z,39.82
2018-09-11T14:12:29.270Z,38.52
2018-09-11T14:14:55.594Z,38.67
2018-09-11T14:17:21.921Z,38.29
2018-09-11T14:19:48.251Z,39.18
2018-09-11T14:22:14.607Z,38.87
2018-09-11T14:24:40.937Z,38.61
2018-09-11T14:27:07.255Z,38.17
2018-09-11T14:29:33.581Z,37.56
2018-09-11T14:31:59.899Z,37.69
2018-09-11T14:34:26.258Z,38.39
2018-09-11T14:36:52.584Z,38.40
2018-09-11T14:39:18.915Z,38.41
2018-09-11T14:41:45.237Z,39.61
2018-09-11T14:44:11.562Z,39.75
2018-09-11T14:46:37.916Z,40.20
2018-09-11T14:49:04.189Z,40.70
2018-09-11T14:51:30.498Z,40.51
2018-09-11T14:53:56.849Z,40.23
2018-09-11T14:56:23.168Z,40.92
2018-09-11T14:58:49.495Z,41.03
2018-09-11T15:01:15.819Z,41.50
2018-09-11T15:03:42.168Z,41.45
2018-09-11T15:06:08.452Z,41.58
2018-09-11T15:08:34.813Z,41.47
2018-09-11T15:11:01.150Z,41.80
2018-09-11T15:13:27.459Z,41.74
2018-09-11T15:15:53.785Z,41.63
2018-09-11T15:18:20.114Z,42.17
2018-09-11T15:20:46.442Z,42.40
2018-09-11T15:23:12.769Z,42.37
2018-09-11T15:25:39.083Z,42.54
2018-09-11T15:28:05.415Z,41.43
2018-09-11T15:30:31.729Z,40.87
2018-09-11T15:32:58.055Z,40.45
2018-09-11T15:35:24.423Z,40.58
2018-09-11T15:37:50.736Z,40.50
2018-09-11T15:40:17.058Z,40.71
2018-09-11T15:42:43.377Z,41.22
2018-09-11T15:45:09.742Z,41.17
2018-09-11T15:47:36.077Z,41.46
2018-09-11T15:50:02.393Z,41.34
2018-09-11T15:52:28.722Z,40.97
2018-09-11T15:54:55.040Z,40.96
2018-09-11T15:57:21.365Z,42.25
2018-09-11T15:59:47.678Z,43.04
2018-09-11T16:02:14.039Z,43.55
2018-09-11T16:04:40.348Z,44.01
2018-09-11T16:07:06.736Z,44.14
2018-09-11T16:09:33.008Z,44.79
2018-09-11T16:11:59.341Z,44.38
2018-09-11T16:14:25.656Z,44.58
2018-09-11T16:16:51.968Z,45.01
2018-09-11T16:19:18.298Z,45.33
2018-09-11T16:21:44.610Z,45.32
2018-09-11T16:24:10.934Z,45.43
2018-09-11T16:26:37.249Z,45.67
2018-09-11T16:29:03.595Z,45.87
2018-09-11T16:31:29.908Z,45.88
2018-09-11T16:33:56.245Z,45.81
2018-09-11T16:36:22.556Z,45.85
2018-09-11T16:38:48.913Z,45.58
2018-09-11T16:41:15.260Z,45.88
2018-09-11T16:43:41.585Z,45.83
2018-09-11T16:46:07.900Z,45.68
2018-09-11T16:48:34.232Z,45.25
2018-09-11T16:51:00.553Z,45.30
2018-09-11T16:53:26.869Z,45.01
2018-09-11T16:55:53.212Z,45.36
2018-09-11T16:58:19.566Z,45.20
2018-09-11T17:00:45.897Z,45.27
2018-09-11T17:03:12.204Z,45.25
2018-09-11T17:05:38.516Z,45.41
2018-09-11T17:08:04.838Z,45.60
2018-09-11T17:10:31.168Z,45.68
2018-09-11T17:12:57.502Z,45.68
2018-09-11T17:15:23.824Z,45.77
2018-09-11T17:17:50.139Z,46.29
2018-09-11T17:20:16.541Z,45.86
2018-09-11T17:22:42.778Z,46.46
2018-09-11T17:25:09.089Z,46.20
2018-09-11T17:27:35.404Z,46.34
2018-09-11T17:30:01.775Z,46.19
2018-09-11T17:32:28.130Z,46.51
2018-09-11T17:34:54.465Z,46.07
2018-09-11T17:37:20.851Z,46.58
2018-09-11T17:39:47.160Z,46.70
2018-09-11T17:42:13.486Z,46.29
2018-09-11T17:44:39.810Z,46.01
2018-09-11T17:47:06.116Z,46.07
2018-09-11T17:49:32.427Z,46.12
2018-09-11T17:51:58.750Z,46.15
2018-09-11T17:54:25.084Z,46.55
2018-09-11T17:56:51.409Z,46.06
2018-09-11T17:59:17.720Z,45.71
2018-09-11T18:01:44.032Z,45.75
2018-09-11T18:04:10.340Z,45.88
2018-09-11T18:06:36.681Z,45.83
2018-09-11T18:09:03.173Z,46.28
2018-09-11T18:11:29.476Z,46.48
2018-09-11T18:13:55.789Z,46.66
2018-09-11T18:16:22.105Z,46.52
2018-09-11T18:18:48.427Z,46.69
2018-09-11T18:21:14.754Z,46.83
2018-09-11T18:23:41.065Z,47.05
2018-09-11T18:26:07.399Z,46.96
2018-09-11T18:28:33.706Z,47.13
2018-09-11T18:31:00.018Z,47.34
2018-09-11T18:33:26.333Z,46.96
2018-09-11T18:35:52.666Z,47.03
2018-09-11T18:38:18.982Z,46.95
2018-09-11T18:40:45.350Z,47.18
2018-09-11T18:43:11.622Z,47.17
2018-09-11T18:45:37.947Z,47.24
2018-09-11T18:48:04.272Z,47.43
2018-09-11T18:50:30.602Z,47.66
2018-09-11T18:52:56.936Z,47.92
2018-09-11T18:55:23.272Z,47.76
2018-09-11T18:57:49.613Z,47.44
2018-09-11T19:00:15.918Z,47.42
2018-09-11T19:02:42.273Z,47.41
2018-09-11T19:05:08.647Z,47.71
2018-09-11T19:07:34.940Z,47.81
2018-09-11T19:10:01.247Z,47.78
2018-09-11T19:12:27.566Z,47.83
2018-09-11T19:14:53.890Z,47.98
2018-09-11T19:17:20.206Z,47.92
2018-09-11T19:19:46.563Z,48.12
2018-09-11T19:22:12.841Z,48.03
2018-09-11T19:24:39.152Z,48.09
2018-09-11T19:27:05.514Z,47.96
2018-09-11T19:29:31.836Z,48.06
2018-09-11T19:31:58.166Z,47.97
2018-09-11T19:34:24.535Z,47.75
2018-09-11T19:36:50.868Z,48.19
2018-09-11T19:39:17.176Z,48.27
2018-09-11T19:41:43.547Z,48.15
2018-09-11T19:44:09.848Z,48.14
2018-09-11T19:46:36.165Z,48.26
2018-09-11T19:49:02.519Z,48.45
2018-09-11T19:51:28.843Z,48.93
2018-09-11T19:53:55.161Z,49.30
2018-09-11T19:56:21.484Z,49.01
2018-09-11T19:58:47.807Z,48.92
2018-09-11T20:01:14.107Z,49.08
2018-09-11T20:03:40.417Z,48.85
2018-09-11T20:06:06.736Z,49.56
2018-09-11T20:08:33.092Z,49.36
2018-09-11T20:10:59.407Z,49.54
2018-09-11T20:13:25.729Z,49.54
2018-09-11T20:15:52.046Z,49.68
2018-09-11T20:18:18.372Z,49.72
2018-09-11T20:20:44.721Z,49.90
2018-09-11T20:23:11.044Z,49.96
2018-09-11T20:25:37.352Z,50.06
2018-09-11T20:28:03.746Z,50.02
2018-09-11T20:30:30.022Z,50.05
2018-09-11T20:32:56.424Z,50.64
2018-09-11T20:35:22.742Z,50.97
2018-09-11T20:37:49.056Z,51.11
2018-09-11T20:40:15.373Z,51.30
2018-09-11T20:42:41.719Z,50.98
2018-09-11T20:45:08.101Z,51.30
2018-09-11T20:47:34.355Z,51.80
2018-09-11T20:50:00.669Z,52.01
2018-09-11T20:52:26.990Z,51.77
2018-09-11T20:54:53.312Z,52.02
2018-09-11T20:57:19.636Z,52.02
2018-09-11T20:59:45.970Z,52.35
2018-09-11T21:02:12.299Z,52.35
2018-09-11T21:04:38.610Z,52.96
2018-09-11T21:07:04.939Z,52.75
2018-09-11T21:09:31.266Z,53.20
2018-09-11T21:11:57.574Z,53.21
2018-09-11T21:14:23.887Z,53.71
2018-09-11T21:16:50.208Z,53.42
2018-09-11T21:19:16.515Z,53.36
2018-09-11T21:21:42.865Z,53.16
2018-09-11T21:24:09.191Z,53.37
2018-09-11T21:26:35.519Z,53.54
2018-09-11T21:29:01.842Z,53.66
2018-09-11T21:31:28.171Z,53.47
2018-09-11T21:33:54.494Z,53.45
2018-09-11T21:36:20.801Z,53.40
2018-09-11T21:38:47.118Z,53.65
2018-09-11T21:41:13.485Z,54.01
2018-09-11T21:43:39.802Z,54.39
2018-09-11T21:46:06.141Z,54.42
2018-09-11T21:48:32.436Z,54.45
2018-09-11T21:50:58.755Z,54.17
2018-09-11T21:53:25.110Z,54.34
2018-09-11T21:55:54.307Z,54.54
2018-09-11T21:58:20.602Z,54.68
2018-09-11T22:00:53.030Z,54.80
2018-09-11T22:03:21.959Z,54.94
2018-09-11T22:05:48.309Z,55.28
2018-09-11T22:08:14.592Z,55.21
2018-09-11T22:10:40.953Z,55.46
2018-09-11T22:13:07.233Z,55.42
2018-09-11T22:15:33.544Z,55.88
2018-09-11T22:17:59.874Z,55.66
2018-09-11T22:20:26.179Z,55.69
2018-09-11T22:22:52.487Z,55.70
2018-09-11T22:25:18.795Z,55.87
2018-09-11T22:27:45.104Z,55.82
2018-09-11T22:30:11.452Z,56.08
2018-09-11T22:32:37.772Z,56.06
2018-09-11T22:35:04.079Z,55.96
2018-09-11T22:37:30.392Z,56.39
2018-09-11T22:39:56.743Z,56.35
2018-09-11T22:42:23.106Z,56.44
2018-09-11T22:44:49.371Z,56.81
2018-09-11T22:47:15.684Z,56.97
2018-09-11T22:49:42.035Z,57.16
2018-09-11T22:52:08.316Z,56.99
2018-09-11T22:54:34.674Z,57.19
2018-09-11T22:57:00.986Z,57.06
2018-09-11T22:59:27.304Z,57.29
2018-09-11T23:01:53.614Z,57.25
2018-09-11T23:04:19.979Z,57.33
2018-09-11T23:06:46.306Z,57.32
2018-09-11T23:09:12.650Z,57.43
2018-09-11T23:11:38.955Z,57.59
2018-09-11T23:14:05.311Z,57.68
2018-09-11T23:16:31.617Z,57.84
2018-09-11T23:18:57.943Z,57.91
2018-09-11T23:21:24.252Z,58.10
2018-09-11T23:23:50.582Z,58.13
2018-09-11T23:26:16.892Z,58.25
2018-09-11T23:28:43.205Z,58.29
2018-09-11T23:31:09.562Z,58.42
2018-09-11T23:33:35.936Z,58.67
2018-09-11T23:36:02.248Z,58.80
2018-09-11T23:38:28.572Z,58.88
2018-09-11T23:40:54.892Z,59.16
2018-09-11T23:43:21.211Z,59.42
2018-09-11T23:45:47.523Z,59.32
2018-09-11T23:48:13.843Z,59.33
2018-09-11T23:50:40.148Z,59.49
2018-09-11T23:53:06.463Z,59.67
2018-09-11T23:55:32.783Z,60.05
2018-09-11T23:57:59.099Z,60.32
